sensor_id;sensor_type;location;lat;lon;timestamp;pressure;altitude;pressure_sealevel;temperature;humidity
37610;BME280;23457;51.966;8.230;2022-10-01T00:01:40;99995.00;;;12.46;78.45
37610;BME280;23457;51.966;8.230;2022-10-01T00:04:07;99987.19;;;12.50;78.29
37610;BME280;23457;51.966;8.230;2022-10-01T00:06:33;99985.41;;;12.65;77.24
37610;BME280;23457;51.966;8.230;2022-10-01T00:09:00;99974.16;;;12.52;77.44
37610;BME280;23457;51.966;8.230;2022-10-01T00:11:27;99969.75;;;12.66;77.96
37610;BME280;23457;51.966;8.230;2022-10-01T00:13:54;99963.63;;;12.78;77.08
37610;BME280;23457;51.966;8.230;2022-10-01T00:16:23;99964.56;;;12.55;79.38
37610;BME280;23457;51.966;8.230;2022-10-01T00:18:50;99957.63;;;12.57;78.58
37610;BME280;23457;51.966;8.230;2022-10-01T00:21:22;99955.88;;;12.63;77.88
37610;BME280;23457;51.966;8.230;2022-10-01T00:23:57;99954.19;;;12.46;79.81
37610;BME280;23457;51.966;8.230;2022-10-01T00:26:26;99942.03;;;12.48;78.79
37610;BME280;23457;51.966;8.230;2022-10-01T00:28:55;99942.03;;;12.44;80.16
37610;BME280;23457;51.966;8.230;2022-10-01T00:31:23;99941.16;;;12.45;79.92
37610;BME280;23457;51.966;8.230;2022-10-01T00:33:52;99936.81;;;12.44;80.02
37610;BME280;23457;51.966;8.230;2022-10-01T00:36:19;99933.28;;;12.62;78.73
37610;BME280;23457;51.966;8.230;2022-10-01T00:38:46;99937.59;;;12.66;79.37
37610;BME280;23457;51.966;8.230;2022-10-01T00:41:15;99929.72;;;12.75;77.78
37610;BME280;23457;51.966;8.230;2022-10-01T00:43:46;99928.06;;;12.65;78.92
37610;BME280;23457;51.966;8.230;2022-10-01T00:46:21;99916.72;;;12.72;77.61
37610;BME280;23457;51.966;8.230;2022-10-01T00:51:30;99914.09;;;12.78;77.61
37610;BME280;23457;51.966;8.230;2022-10-01T00:54:07;99897.56;;;12.77;76.53
37610;BME280;23457;51.966;8.230;2022-10-01T00:56:36;99901.88;;;12.83;78.01
37610;BME280;23457;51.966;8.230;2022-10-01T00:59:04;99888.00;;;12.78;76.66
37610;BME280;23457;51.966;8.230;2022-10-01T01:01:35;99891.41;;;12.86;76.94
37610;BME280;23457;51.966;8.230;2022-10-01T01:04:04;99889.75;;;12.76;78.19
37610;BME280;23457;51.966;8.230;2022-10-01T01:06:50;99881.88;;;12.80;77.63
37610;BME280;23457;51.966;8.230;2022-10-01T01:09:22;99885.38;;;12.79;77.03
37610;BME280;23457;51.966;8.230;2022-10-01T01:14:53;99881.91;;;12.79;79.18
37610;BME280;23457;51.966;8.230;2022-10-01T01:25:49;99873.09;;;12.98;78.25
37610;BME280;23457;51.966;8.230;2022-10-01T01:31:00;99868.03;;;12.75;78.27
37610;BME280;23457;51.966;8.230;2022-10-01T01:33:30;99861.88;;;12.84;77.85
37610;BME280;23457;51.966;8.230;2022-10-01T01:36:06;99857.44;;;12.97;78.07
37610;BME280;23457;51.966;8.230;2022-10-01T01:38:38;99849.63;;;12.92;77.43
37610;BME280;23457;51.966;8.230;2022-10-01T01:41:09;99853.06;;;13.02;77.90
37610;BME280;23457;51.966;8.230;2022-10-01T01:43:40;99846.03;;;13.11;76.69
37610;BME280;23457;51.966;8.230;2022-10-01T01:46:11;99840.81;;;13.16;76.67
37610;BME280;23457;51.966;8.230;2022-10-01T01:48:39;99847.03;;;12.93;77.91
37610;BME280;23457;51.966;8.230;2022-10-01T01:51:12;99846.97;;;13.03;78.27
37610;BME280;23457;51.966;8.230;2022-10-01T01:53:40;99835.59;;;13.14;77.93
37610;BME280;23457;51.966;8.230;2022-10-01T01:56:07;99833.88;;;13.09;77.76
37610;BME280;23457;51.966;8.230;2022-10-01T01:58:34;99833.78;;;13.22;77.48
37610;BME280;23457;51.966;8.230;2022-10-01T02:01:01;99830.41;;;13.05;79.00
37610;BME280;23457;51.966;8.230;2022-10-01T02:03:29;99828.59;;;13.19;80.21
37610;BME280;23457;51.966;8.230;2022-10-01T02:09:18;99802.75;;;12.89;85.12
37610;BME280;23457;51.966;8.230;2022-10-01T02:17:31;99770.81;;;12.55;88.31
37610;BME280;23457;51.966;8.230;2022-10-01T02:20:10;99768.28;;;12.50;91.12
37610;BME280;23457;51.966;8.230;2022-10-01T02:25:17;99775.22;;;12.48;89.98
37610;BME280;23457;51.966;8.230;2022-10-01T02:27:54;99770.00;;;12.50;91.80
37610;BME280;23457;51.966;8.230;2022-10-01T02:30:24;99770.09;;;12.33;93.80
37610;BME280;23457;51.966;8.230;2022-10-01T02:32:53;99774.44;;;12.39;94.83
37610;BME280;23457;51.966;8.230;2022-10-01T02:35:25;99757.06;;;12.35;95.18
37610;BME280;23457;51.966;8.230;2022-10-01T02:37:54;99771.84;;;12.31;96.64
37610;BME280;23457;51.966;8.230;2022-10-01T02:40:24;99765.69;;;12.41;96.83
37610;BME280;23457;51.966;8.230;2022-10-01T02:42:54;99769.25;;;12.30;97.53
37610;BME280;23457;51.966;8.230;2022-10-01T02:45:23;99772.72;;;12.35;98.02
37610;BME280;23457;51.966;8.230;2022-10-01T02:48:01;99771.09;;;12.15;100.00
37610;BME280;23457;51.966;8.230;2022-10-01T02:50:34;99777.19;;;12.11;100.00
37610;BME280;23457;51.966;8.230;2022-10-01T02:53:05;99770.25;;;12.06;100.00
37610;BME280;23457;51.966;8.230;2022-10-01T02:55:35;99761.56;;;12.07;100.00
37610;BME280;23457;51.966;8.230;2022-10-01T02:58:04;99747.66;;;12.11;100.00
37610;BME280;23457;51.966;8.230;2022-10-01T03:00:31;99740.72;;;12.11;100.00
37610;BME280;23457;51.966;8.230;2022-10-01T03:02:58;99731.22;;;12.03;100.00
37610;BME280;23457;51.966;8.230;2022-10-01T03:05:25;99727.81;;;11.90;100.00
37610;BME280;23457;51.966;8.230;2022-10-01T03:07:52;99713.00;;;12.03;100.00
37610;BME280;23457;51.966;8.230;2022-10-01T03:10:18;99707.91;;;11.72;100.00
37610;BME280;23457;51.966;8.230;2022-10-01T03:12:45;99700.00;;;11.94;100.00
37610;BME280;23457;51.966;8.230;2022-10-01T03:15:14;99690.53;;;11.83;100.00
37610;BME280;23457;51.966;8.230;2022-10-01T03:17:41;99677.50;;;11.83;100.00
37610;BME280;23457;51.966;8.230;2022-10-01T03:20:09;99659.34;;;11.77;100.00
37610;BME280;23457;51.966;8.230;2022-10-01T03:22:36;99654.13;;;11.74;100.00
37610;BME280;23457;51.966;8.230;2022-10-01T03:25:03;99655.88;;;11.66;100.00
37610;BME280;23457;51.966;8.230;2022-10-01T03:27:30;99653.22;;;11.78;100.00
37610;BME280;23457;51.966;8.230;2022-10-01T03:29:58;99648.06;;;11.75;100.00
37610;BME280;23457;51.966;8.230;2022-10-01T03:32:24;99643.66;;;11.83;100.00
37610;BME280;23457;51.966;8.230;2022-10-01T03:34:51;99626.38;;;11.67;100.00
37610;BME280;23457;51.966;8.230;2022-10-01T03:37:19;99617.75;;;11.62;100.00
37610;BME280;23457;51.966;8.230;2022-10-01T03:39:45;99615.09;;;11.65;100.00
37610;BME280;23457;51.966;8.230;2022-10-01T03:42:12;99602.09;;;11.65;100.00
37610;BME280;23457;51.966;8.230;2022-10-01T03:44:38;99598.72;;;11.51;100.00
37610;BME280;23457;51.966;8.230;2022-10-01T03:47:05;99603.88;;;11.60;100.00
37610;BME280;23457;51.966;8.230;2022-10-01T03:49:32;99592.72;;;11.37;100.00
37610;BME280;23457;51.966;8.230;2022-10-01T03:52:00;99591.84;;;11.38;100.00
37610;BME280;23457;51.966;8.230;2022-10-01T03:54:27;99599.56;;;11.55;100.00
37610;BME280;23457;51.966;8.230;2022-10-01T03:56:56;99599.63;;;11.44;100.00
37610;BME280;23457;51.966;8.230;2022-10-01T03:59:23;99601.34;;;11.43;100.00
37610;BME280;23457;51.966;8.230;2022-10-01T04:01:52;99603.09;;;11.40;100.00
37610;BME280;23457;51.966;8.230;2022-10-01T04:04:19;99605.66;;;11.51;100.00
37610;BME280;23457;51.966;8.230;2022-10-01T04:06:46;99597.88;;;11.40;100.00
37610;BME280;23457;51.966;8.230;2022-10-01T04:09:13;99604.81;;;11.47;100.00
37610;BME280;23457;51.966;8.230;2022-10-01T04:11:44;99602.16;;;11.56;100.00
37610;BME280;23457;51.966;8.230;2022-10-01T04:14:12;99584.94;;;11.28;100.00
37610;BME280;23457;51.966;8.230;2022-10-01T04:16:39;99581.31;;;11.59;100.00
37610;BME280;23457;51.966;8.230;2022-10-01T04:19:06;99577.88;;;11.54;100.00
37610;BME280;23457;51.966;8.230;2022-10-01T04:21:32;99569.22;;;11.52;100.00
37610;BME280;23457;51.966;8.230;2022-10-01T04:24:00;99563.13;;;11.56;100.00
37610;BME280;23457;51.966;8.230;2022-10-01T04:26:28;99564.06;;;11.46;100.00
37610;BME280;23457;51.966;8.230;2022-10-01T04:28:55;99564.97;;;11.36;100.00
37610;BME280;23457;51.966;8.230;2022-10-01T04:31:21;99559.66;;;11.56;100.00
37610;BME280;23457;51.966;8.230;2022-10-01T04:33:53;99541.56;;;11.39;100.00
37610;BME280;23457;51.966;8.230;2022-10-01T04:36:20;99548.34;;;11.61;100.00
37610;BME280;23457;51.966;8.230;2022-10-01T04:38:52;99555.25;;;11.65;100.00
37610;BME280;23457;51.966;8.230;2022-10-01T04:41:28;99551.91;;;11.51;100.00
37610;BME280;23457;51.966;8.230;2022-10-01T04:43:57;99561.47;;;11.43;100.00
37610;BME280;23457;51.966;8.230;2022-10-01T04:46:26;99555.31;;;11.53;100.00
37610;BME280;23457;51.966;8.230;2022-10-01T04:48:53;99553.63;;;11.52;100.00
37610;BME280;23457;51.966;8.230;2022-10-01T04:51:20;99540.63;;;11.49;100.00
37610;BME280;23457;51.966;8.230;2022-10-01T04:53:46;99546.69;;;11.51;100.00
37610;BME280;23457;51.966;8.230;2022-10-01T04:56:13;99551.97;;;11.36;100.00
37610;BME280;23457;51.966;8.230;2022-10-01T04:58:39;99555.38;;;11.47;100.00
37610;BME280;23457;51.966;8.230;2022-10-01T05:01:06;99543.31;;;11.34;100.00
37610;BME280;23457;51.966;8.230;2022-10-01T05:03:33;99531.16;;;11.39;100.00
37610;BME280;23457;51.966;8.230;2022-10-01T05:06:00;99528.41;;;11.62;100.00
37610;BME280;23457;51.966;8.230;2022-10-01T05:08:26;99524.84;;;11.70;100.00
37610;BME280;23457;51.966;8.230;2022-10-01T05:10:53;99529.22;;;11.65;100.00
37610;BME280;23457;51.966;8.230;2022-10-01T05:13:19;99535.34;;;11.60;100.00
37610;BME280;23457;51.966;8.230;2022-10-01T05:15:49;99540.53;;;11.61;100.00
37610;BME280;23457;51.966;8.230;2022-10-01T05:18:17;99525.72;;;11.72;100.00
37610;BME280;23457;51.966;8.230;2022-10-01T05:20:44;99522.25;;;11.70;100.00
37610;BME280;23457;51.966;8.230;2022-10-01T05:23:11;99512.78;;;11.60;100.00
37610;BME280;23457;51.966;8.230;2022-10-01T05:25:38;99503.16;;;11.71;100.00
37610;BME280;23457;51.966;8.230;2022-10-01T05:28:04;99501.44;;;11.66;100.00
37610;BME280;23457;51.966;8.230;2022-10-01T05:30:32;99501.50;;;11.61;100.00
37610;BME280;23457;51.966;8.230;2022-10-01T05:33:02;99505.78;;;11.67;100.00
37610;BME280;23457;51.966;8.230;2022-10-01T05:35:29;99504.03;;;11.72;100.00
37610;BME280;23457;51.966;8.230;2022-10-01T05:37:57;99503.16;;;11.74;100.00
37610;BME280;23457;51.966;8.230;2022-10-01T05:40:25;99502.31;;;11.66;100.00
37610;BME280;23457;51.966;8.230;2022-10-01T05:42:58;99502.41;;;11.56;100.00
37610;BME280;23457;51.966;8.230;2022-10-01T05:45:26;99510.97;;;11.71;100.00
37610;BME280;23457;51.966;8.230;2022-10-01T05:48:01;99513.47;;;11.88;100.00
37610;BME280;23457;51.966;8.230;2022-10-01T05:50:29;99516.09;;;11.88;100.00
37610;BME280;23457;51.966;8.230;2022-10-01T05:52:57;99507.41;;;11.86;100.00
37610;BME280;23457;51.966;8.230;2022-10-01T05:55:25;99492.59;;;11.93;100.00
37610;BME280;23457;51.966;8.230;2022-10-01T05:57:57;99521.22;;;11.96;100.00
37610;BME280;23457;51.966;8.230;2022-10-01T06:00:24;99533.34;;;11.97;100.00
37610;BME280;23457;51.966;8.230;2022-10-01T06:02:58;99522.06;;;12.01;100.00
37610;BME280;23457;51.966;8.230;2022-10-01T06:05:27;99514.34;;;11.89;100.00
37610;BME280;23457;51.966;8.230;2022-10-01T06:07:54;99503.16;;;11.76;100.00
37610;BME280;23457;51.966;8.230;2022-10-01T06:10:21;99527.38;;;11.89;100.00
37610;BME280;23457;51.966;8.230;2022-10-01T06:12:48;99511.75;;;11.89;100.00
37610;BME280;23457;51.966;8.230;2022-10-01T06:15:16;99516.91;;;11.92;100.00
37610;BME280;23457;51.966;8.230;2022-10-01T06:17:43;99510.97;;;11.76;100.00
37610;BME280;23457;51.966;8.230;2022-10-01T06:20:15;99523.06;;;11.81;100.00
37610;BME280;23457;51.966;8.230;2022-10-01T06:22:42;99511.84;;;11.76;100.00
37610;BME280;23457;51.966;8.230;2022-10-01T06:25:10;99523.06;;;11.83;100.00
37610;BME280;23457;51.966;8.230;2022-10-01T06:27:38;99522.16;;;11.89;100.00
37610;BME280;23457;51.966;8.230;2022-10-01T06:30:05;99522.16;;;11.86;100.00
37610;BME280;23457;51.966;8.230;2022-10-01T06:32:32;99513.50;;;11.83;100.00
37610;BME280;23457;51.966;8.230;2022-10-01T06:35:01;99516.09;;;11.83;100.00
37610;BME280;23457;51.966;8.230;2022-10-01T06:37:28;99520.31;;;12.00;100.00
37610;BME280;23457;51.966;8.230;2022-10-01T06:39:55;99522.84;;;12.09;100.00
37610;BME280;23457;51.966;8.230;2022-10-01T06:42:21;99525.53;;;11.97;100.00
37610;BME280;23457;51.966;8.230;2022-10-01T06:44:48;99523.72;;;12.05;100.00
37610;BME280;23457;51.966;8.230;2022-10-01T06:47:15;99515.00;;;12.12;100.00
37610;BME280;23457;51.966;8.230;2022-10-01T06:49:41;99532.28;;;12.17;100.00
37610;BME280;23457;51.966;8.230;2022-10-01T06:52:13;99528.00;;;12.13;100.00
37610;BME280;23457;51.966;8.230;2022-10-01T06:54:58;99515.03;;;12.09;100.00
37610;BME280;23457;51.966;8.230;2022-10-01T06:57:27;99521.13;;;12.03;100.00
37610;BME280;23457;51.966;8.230;2022-10-01T06:59:54;99523.69;;;12.11;100.00
37610;BME280;23457;51.966;8.230;2022-10-01T07:02:24;99522.81;;;12.12;100.00
37610;BME280;23457;51.966;8.230;2022-10-01T07:04:57;99523.56;;;12.26;100.00
37610;BME280;23457;51.966;8.230;2022-10-01T07:07:32;99531.41;;;12.18;100.00
37610;BME280;23457;51.966;8.230;2022-10-01T07:10:01;99519.38;;;12.05;100.00
37610;BME280;23457;51.966;8.230;2022-10-01T07:12:28;99521.06;;;12.14;100.00
37610;BME280;23457;51.966;8.230;2022-10-01T07:14:55;99511.41;;;12.25;100.00
37610;BME280;23457;51.966;8.230;2022-10-01T07:17:21;99505.44;;;12.15;100.00
37610;BME280;23457;51.966;8.230;2022-10-01T07:19:48;99507.00;;;12.30;100.00
37610;BME280;23457;51.966;8.230;2022-10-01T07:22:15;99507.91;;;12.26;100.00
37610;BME280;23457;51.966;8.230;2022-10-01T07:24:43;99519.94;;;12.39;100.00
37610;BME280;23457;51.966;8.230;2022-10-01T07:27:10;99522.56;;;12.39;100.00
37610;BME280;23457;51.966;8.230;2022-10-01T07:29:36;99519.28;;;12.16;100.00
37610;BME280;23457;51.966;8.230;2022-10-01T07:32:03;99523.59;;;12.22;100.00
37610;BME280;23457;51.966;8.230;2022-10-01T07:34:35;99523.28;;;12.52;100.00
37610;BME280;23457;51.966;8.230;2022-10-01T07:37:02;99523.44;;;12.35;100.00
37610;BME280;23457;51.966;8.230;2022-10-01T07:39:29;99529.50;;;12.39;100.00
37610;BME280;23457;51.966;8.230;2022-10-01T07:41:56;99534.66;;;12.43;100.00
37610;BME280;23457;51.966;8.230;2022-10-01T07:44:26;99545.91;;;12.45;100.00
37610;BME280;23457;51.966;8.230;2022-10-01T07:46:55;99533.84;;;12.38;100.00
37610;BME280;23457;51.966;8.230;2022-10-01T07:49:22;99536.31;;;12.53;100.00
37610;BME280;23457;51.966;8.230;2022-10-01T07:51:51;99550.38;;;12.36;100.00
37610;BME280;23457;51.966;8.230;2022-10-01T07:54:20;99538.09;;;12.47;100.00
37610;BME280;23457;51.966;8.230;2022-10-01T07:56:48;99547.72;;;12.40;100.00
37610;BME280;23457;51.966;8.230;2022-10-01T07:59:17;99556.38;;;12.42;100.00
37610;BME280;23457;51.966;8.230;2022-10-01T08:01:47;99545.78;;;12.61;100.00
37610;BME280;23457;51.966;8.230;2022-10-01T08:04:15;99553.72;;;12.48;100.00
37610;BME280;23457;51.966;8.230;2022-10-01T08:07:00;99550.97;;;12.61;100.00
37610;BME280;23457;51.966;8.230;2022-10-01T08:09:27;99555.31;;;12.60;100.00
37610;BME280;23457;51.966;8.230;2022-10-01T08:11:53;99551.69;;;12.76;100.00
37610;BME280;23457;51.966;8.230;2022-10-01T08:14:20;99560.38;;;12.75;100.00
37610;BME280;23457;51.966;8.230;2022-10-01T08:16:47;99551.69;;;12.76;100.00
37610;BME280;23457;51.966;8.230;2022-10-01T08:19:14;99555.22;;;12.71;100.00
37610;BME280;23457;51.966;8.230;2022-10-01T08:21:41;99562.16;;;12.72;100.00
37610;BME280;23457;51.966;8.230;2022-10-01T08:24:08;99558.69;;;12.71;100.00
37610;BME280;23457;51.966;8.230;2022-10-01T08:26:35;99559.50;;;12.78;100.00
37610;BME280;23457;51.966;8.230;2022-10-01T08:29:02;99558.63;;;12.77;100.00
37610;BME280;23457;51.966;8.230;2022-10-01T08:31:28;99559.41;;;12.84;100.00
37610;BME280;23457;51.966;8.230;2022-10-01T08:33:56;99555.09;;;12.81;100.00
37610;BME280;23457;51.966;8.230;2022-10-01T08:36:22;99564.56;;;12.91;100.00
37610;BME280;23457;51.966;8.230;2022-10-01T08:38:49;99562.03;;;12.82;100.00
37610;BME280;23457;51.966;8.230;2022-10-01T08:41:26;99569.69;;;12.96;100.00
37610;BME280;23457;51.966;8.230;2022-10-01T08:43:56;99558.19;;;13.17;100.00
37610;BME280;23457;51.966;8.230;2022-10-01T08:46:28;99562.56;;;13.15;100.00
37610;BME280;23457;51.966;8.230;2022-10-01T08:51:58;99578.06;;;13.25;100.00
37610;BME280;23457;51.966;8.230;2022-10-01T08:54:39;99582.91;;;13.53;100.00
37610;BME280;23457;51.966;8.230;2022-10-01T08:57:17;99579.38;;;13.55;100.00
37610;BME280;23457;51.966;8.230;2022-10-01T08:59:58;99594.13;;;13.58;100.00
37610;BME280;23457;51.966;8.230;2022-10-01T09:02:34;99589.63;;;13.69;100.00
37610;BME280;23457;51.966;8.230;2022-10-01T09:05:06;99605.34;;;13.66;100.00
37610;BME280;23457;51.966;8.230;2022-10-01T09:13:29;99604.38;;;13.72;100.00
37610;BME280;23457;51.966;8.230;2022-10-01T09:20:57;99613.69;;;13.92;100.00
37610;BME280;23457;51.966;8.230;2022-10-01T09:23:30;99623.94;;;14.05;100.00
37610;BME280;23457;51.966;8.230;2022-10-01T09:26:00;99628.34;;;14.01;100.00
37610;BME280;23457;51.966;8.230;2022-10-01T09:28:32;99629.25;;;13.98;100.00
37610;BME280;23457;51.966;8.230;2022-10-01T09:31:09;99642.94;;;14.16;100.00
37610;BME280;23457;51.966;8.230;2022-10-01T09:33:40;99640.09;;;14.29;100.00
37610;BME280;23457;51.966;8.230;2022-10-01T09:36:36;99640.00;;;14.34;100.00
37610;BME280;23457;51.966;8.230;2022-10-01T09:39:27;99650.41;;;14.40;100.00
37610;BME280;23457;51.966;8.230;2022-10-01T09:41:57;99645.22;;;14.34;100.00
37610;BME280;23457;51.966;8.230;2022-10-01T09:44:27;99656.19;;;14.57;100.00
37610;BME280;23457;51.966;8.230;2022-10-01T09:46:54;99658.31;;;14.32;100.00
37610;BME280;23457;51.966;8.230;2022-10-01T09:49:28;99659.13;;;14.38;100.00
37610;BME280;23457;51.966;8.230;2022-10-01T09:52:00;99648.66;;;14.38;100.00
37610;BME280;23457;51.966;8.230;2022-10-01T09:57:00;99651.78;;;14.61;100.00
37610;BME280;23457;51.966;8.230;2022-10-01T09:59:37;99647.56;;;14.54;100.00
37610;BME280;23457;51.966;8.230;2022-10-01T10:02:15;99654.66;;;14.44;100.00
37610;BME280;23457;51.966;8.230;2022-10-01T10:04:43;99654.53;;;14.53;100.00
37610;BME280;23457;51.966;8.230;2022-10-01T10:07:15;99658.03;;;14.52;100.00
37610;BME280;23457;51.966;8.230;2022-10-01T10:09:44;99655.88;;;14.76;100.00
37610;BME280;23457;51.966;8.230;2022-10-01T10:12:27;99659.28;;;14.81;100.00
37610;BME280;23457;51.966;8.230;2022-10-01T10:15:05;99652.91;;;14.95;100.00
37610;BME280;23457;51.966;8.230;2022-10-01T10:17:34;99657.13;;;15.04;100.00
37610;BME280;23457;51.966;8.230;2022-10-01T10:20:11;99667.41;;;15.13;100.00
37610;BME280;23457;51.966;8.230;2022-10-01T10:22:42;99662.44;;;15.44;100.00
37610;BME280;23457;51.966;8.230;2022-10-01T10:25:15;99654.53;;;15.46;100.00
37610;BME280;23457;51.966;8.230;2022-10-01T10:27:54;99664.25;;;15.40;100.00
37610;BME280;23457;51.966;8.230;2022-10-01T10:30:24;99649.88;;;15.18;100.00
37610;BME280;23457;51.966;8.230;2022-10-01T10:32:52;99666.97;;;15.34;100.00
37610;BME280;23457;51.966;8.230;2022-10-01T10:35:27;99665.19;;;15.36;100.00
37610;BME280;23457;51.966;8.230;2022-10-01T10:37:55;99663.31;;;15.43;100.00
37610;BME280;23457;51.966;8.230;2022-10-01T10:40:30;99661.38;;;15.53;100.00
37610;BME280;23457;51.966;8.230;2022-10-01T10:42:58;99666.66;;;15.50;100.00
37610;BME280;23457;51.966;8.230;2022-10-01T10:45:35;99661.00;;;15.71;100.00
37610;BME280;23457;51.966;8.230;2022-10-01T10:48:05;99669.25;;;15.94;100.00
37610;BME280;23457;51.966;8.230;2022-10-01T10:50:37;99671.06;;;15.91;100.00
37610;BME280;23457;51.966;8.230;2022-10-01T10:53:19;99676.59;;;15.77;100.00
37610;BME280;23457;51.966;8.230;2022-10-01T10:58:28;99687.69;;;15.90;100.00
37610;BME280;23457;51.966;8.230;2022-10-01T11:00:58;99687.88;;;16.21;100.00
37610;BME280;23457;51.966;8.230;2022-10-01T11:03:27;99684.31;;;16.22;100.00
37610;BME280;23457;51.966;8.230;2022-10-01T11:06:02;99682.16;;;16.02;100.00
37610;BME280;23457;51.966;8.230;2022-10-01T11:08:34;99684.03;;;16.34;100.00
37610;BME280;23457;51.966;8.230;2022-10-01T11:11:20;99690.22;;;16.31;100.00
37610;BME280;23457;51.966;8.230;2022-10-01T11:27:54;99692.16;;;16.96;100.00
37610;BME280;23457;51.966;8.230;2022-10-01T11:30:42;99696.88;;;16.81;100.00
37610;BME280;23457;51.966;8.230;2022-10-01T11:35:43;99702.28;;;16.75;100.00
37610;BME280;23457;51.966;8.230;2022-10-01T11:38:21;99709.16;;;17.13;100.00
37610;BME280;23457;51.966;8.230;2022-10-01T11:40:53;99691.72;;;16.78;100.00
37610;BME280;23457;51.966;8.230;2022-10-01T11:43:29;99701.56;;;17.03;100.00
37610;BME280;23457;51.966;8.230;2022-10-01T11:46:07;99701.09;;;16.87;99.17
37610;BME280;23457;51.966;8.230;2022-10-01T11:49:34;99708.94;;;16.89;98.48
37610;BME280;23457;51.966;8.230;2022-10-01T11:51:42;99712.38;;;16.91;98.79
37610;BME280;23457;51.966;8.230;2022-10-01T11:54:14;99713.03;;;16.99;99.95
37610;BME280;23457;51.966;8.230;2022-10-01T11:56:46;99715.31;;;17.12;100.00
37610;BME280;23457;51.966;8.230;2022-10-01T11:59:51;99712.69;;;16.78;99.55
37610;BME280;23457;51.966;8.230;2022-10-01T12:02:26;99712.78;;;16.75;98.60
37610;BME280;23457;51.966;8.230;2022-10-01T12:05:06;99710.91;;;16.80;97.91
37610;BME280;23457;51.966;8.230;2022-10-01T12:10:38;99724.16;;;16.74;96.18
37610;BME280;23457;51.966;8.230;2022-10-01T12:21:25;99730.75;;;16.55;100.00
37610;BME280;23457;51.966;8.230;2022-10-01T12:24:10;99705.34;;;16.57;100.00
37610;BME280;23457;51.966;8.230;2022-10-01T12:30:03;99741.47;;;17.17;100.00
37610;BME280;23457;51.966;8.230;2022-10-01T12:38:31;99736.28;;;18.08;100.00
37610;BME280;23457;51.966;8.230;2022-10-01T12:41:27;99744.63;;;17.93;100.00
37610;BME280;23457;51.966;8.230;2022-10-01T12:49:58;99756.56;;;18.03;97.84
37610;BME280;23457;51.966;8.230;2022-10-01T12:55:52;99753.94;;;18.03;95.17
37610;BME280;23457;51.966;8.230;2022-10-01T13:15:28;99765.25;;;17.43;88.64
37610;BME280;23457;51.966;8.230;2022-10-01T13:18:07;99779.50;;;17.35;91.08
37610;BME280;23457;51.966;8.230;2022-10-01T13:24:09;99791.47;;;17.11;88.50
37610;BME280;23457;51.966;8.230;2022-10-01T13:26:41;99790.44;;;17.18;89.04
37610;BME280;23457;51.966;8.230;2022-10-01T13:29:23;99794.50;;;17.30;89.62
37610;BME280;23457;51.966;8.230;2022-10-01T13:31:58;99804.72;;;17.40;89.48
37610;BME280;23457;51.966;8.230;2022-10-01T13:34:38;99804.63;;;17.45;88.76
37610;BME280;23457;51.966;8.230;2022-10-01T13:39:56;99796.38;;;17.25;89.82
37610;BME280;23457;51.966;8.230;2022-10-01T13:42:36;99806.41;;;17.77;88.63
37610;BME280;23457;51.966;8.230;2022-10-01T13:45:05;99810.69;;;17.81;87.61
37610;BME280;23457;51.966;8.230;2022-10-01T13:47:34;99823.38;;;17.65;87.14
37610;BME280;23457;51.966;8.230;2022-10-01T13:50:18;99819.66;;;17.38;88.91
37610;BME280;23457;51.966;8.230;2022-10-01T13:52:46;99846.59;;;17.11;89.86
37610;BME280;23457;51.966;8.230;2022-10-01T13:55:27;99849.00;;;16.84;96.72
37610;BME280;23457;51.966;8.230;2022-10-01T13:58:50;99881.00;;;16.60;97.99
37610;BME280;23457;51.966;8.230;2022-10-01T14:00:54;99877.69;;;16.52;100.00
37610;BME280;23457;51.966;8.230;2022-10-01T14:06:18;99899.66;;;16.03;100.00
37610;BME280;23457;51.966;8.230;2022-10-01T14:08:51;99894.47;;;16.00;100.00
37610;BME280;23457;51.966;8.230;2022-10-01T14:11:25;99924.41;;;15.87;100.00
37610;BME280;23457;51.966;8.230;2022-10-01T14:14:19;99915.78;;;15.28;100.00
37610;BME280;23457;51.966;8.230;2022-10-01T14:17:07;99920.16;;;15.28;97.34
37610;BME280;23457;51.966;8.230;2022-10-01T14:19:35;99904.63;;;15.17;99.73
37610;BME280;23457;51.966;8.230;2022-10-01T14:24:47;99909.88;;;15.17;100.00
37610;BME280;23457;51.966;8.230;2022-10-01T14:27:39;99907.63;;;14.93;100.00
37610;BME280;23457;51.966;8.230;2022-10-01T14:30:15;99895.53;;;14.83;100.00
37610;BME280;23457;51.966;8.230;2022-10-01T14:33:05;99899.47;;;14.50;100.00
37610;BME280;23457;51.966;8.230;2022-10-01T14:35:42;99908.31;;;14.40;100.00
37610;BME280;23457;51.966;8.230;2022-10-01T14:38:17;99894.94;;;14.62;100.00
37610;BME280;23457;51.966;8.230;2022-10-01T14:40:46;99907.16;;;14.63;100.00
37610;BME280;23457;51.966;8.230;2022-10-01T14:46:00;99910.06;;;15.05;100.00
37610;BME280;23457;51.966;8.230;2022-10-01T14:48:29;99895.22;;;15.04;100.00
37610;BME280;23457;51.966;8.230;2022-10-01T14:51:02;99907.94;;;15.28;100.00
37610;BME280;23457;51.966;8.230;2022-10-01T14:53:33;99916.94;;;15.09;100.00
37610;BME280;23457;51.966;8.230;2022-10-01T14:56:04;99914.28;;;15.14;100.00
37610;BME280;23457;51.966;8.230;2022-10-01T14:58:38;99923.72;;;15.22;100.00
37610;BME280;23457;51.966;8.230;2022-10-01T15:01:16;99931.50;;;15.28;100.00
37610;BME280;23457;51.966;8.230;2022-10-01T15:03:45;99927.59;;;15.54;100.00
37610;BME280;23457;51.966;8.230;2022-10-01T15:06:15;99931.38;;;15.36;100.00
37610;BME280;23457;51.966;8.230;2022-10-01T15:08:47;99943.25;;;15.58;100.00
37610;BME280;23457;51.966;8.230;2022-10-01T15:11:22;99946.50;;;15.72;100.00
37610;BME280;23457;51.966;8.230;2022-10-01T15:13:52;99942.88;;;15.81;100.00
37610;BME280;23457;51.966;8.230;2022-10-01T15:16:22;99954.78;;;15.97;100.00
37610;BME280;23457;51.966;8.230;2022-10-01T15:18:56;99956.94;;;16.23;100.00